Time;durP1;ratioP1;P1;durP2;ratioP2;P2;SDS_P1;SDS_P2;PMS_P1;PMS_P2;Temp;Humidity;BMP_temperature;BMP_pressure;BME280_temperature;BME280_humidity;BME280_pressure;Samples;Min_cycle;Max_cycle;Signal;HPM_P1;HPM_P2
2022/08/12 00:43:25;;;;;;;5.70;2.97;;;;;;;24.70;48.04;100534.00;5093079;28;20402;-78
2022/08/12 00:48:36;;;;;;;5.32;2.70;;;;;;;24.74;47.85;100547.06;5093246;28;20042;-79
2022/08/12 00:51:03;;;;;;;7.53;3.28;;;;;;;24.59;48.08;100532.75;5091629;28;20024;-79
2022/08/12 00:53:29;;;;;;;4.95;2.65;;;;;;;24.75;47.85;100548.78;5092937;28;20043;-78
2022/08/12 00:55:57;;;;;;;4.35;2.88;;;;;;;24.71;48.24;100552.16;5091719;28;20135;-78
2022/08/12 00:58:28;;;;;;;9.00;2.67;;;;;;;24.71;48.00;100550.25;5092912;28;20024;-78
2022/08/12 01:01:07;;;;;;;4.07;2.65;;;;;;;24.74;48.05;100540.72;5092722;28;20489;-78
2022/08/12 01:11:51;;;;;;;13.35;3.60;;;;;;;24.62;48.29;100553.47;5095341;28;20062;-79
2022/08/12 01:14:22;;;;;;;3.80;2.42;;;;;;;24.67;48.19;100557.28;5077552;28;20055;-79
2022/08/12 01:16:50;;;;;;;14.48;3.38;;;;;;;24.70;48.05;100556.84;5092571;28;20027;-78
2022/08/12 01:19:19;;;;;;;3.20;2.63;;;;;;;24.60;48.21;100545.47;5075281;28;20512;-79
2022/08/12 01:22:02;;;;;;;3.75;2.75;;;;;;;24.55;48.46;100550.78;5093281;28;20178;-80
2022/08/12 01:24:55;;;;;;;16.75;3.25;;;;;;;24.35;48.84;100533.50;5093624;28;20030;-78
2022/08/12 01:27:23;;;;;;;7.25;2.28;;;;;;;24.39;48.92;100551.25;5091325;28;20102;-78
2022/08/12 01:29:51;;;;;;;7.75;3.08;;;;;;;24.34;48.95;100540.88;5091098;28;20567;-79
2022/08/12 01:32:18;;;;;;;10.88;3.20;;;;;;;24.36;48.85;100529.69;5092108;28;20024;-78
2022/08/12 01:34:53;;;;;;;7.40;3.28;;;;;;;24.43;48.95;100549.75;5090881;28;20047;-78
2022/08/12 01:37:23;;;;;;;3.47;3.15;;;;;;;24.32;49.23;100542.16;5090853;28;20032;-79
2022/08/12 01:39:52;;;;;;;5.03;3.17;;;;;;;24.40;49.03;100541.94;5092007;28;20085;-79
2022/08/12 01:42:22;;;;;;;7.80;3.05;;;;;;;24.41;48.86;100546.38;5090137;28;20024;-79
2022/08/12 01:44:51;;;;;;;6.97;3.80;;;;;;;24.35;49.17;100544.47;5091903;28;20115;-78
2022/08/12 01:47:41;;;;;;;10.00;3.10;;;;;;;24.29;49.37;100546.19;5091936;28;20047;-78
2022/08/12 01:50:10;;;;;;;8.27;2.90;;;;;;;24.30;49.36;100549.78;5090725;28;20116;-79
2022/08/12 01:52:53;;;;;;;11.00;4.25;;;;;;;24.22;49.74;100548.13;5091965;28;20059;-78
2022/08/12 01:55:32;;;;;;;8.88;2.92;;;;;;;24.15;49.80;100558.31;5091946;28;20024;-79
2022/08/12 01:58:25;;;;;;;9.48;3.03;;;;;;;24.15;50.14;100557.44;5090352;28;20485;-78
2022/08/12 02:01:10;;;;;;;3.55;3.25;;;;;;;24.07;50.47;100544.72;5091907;28;20405;-78
2022/08/12 02:13:33;;;;;;;7.18;3.05;;;;;;;24.07;50.87;100541.13;5092070;28;20043;-78
2022/08/12 02:16:36;;;;;;;7.47;3.10;;;;;;;23.99;50.93;100544.97;5090205;28;20044;-79
2022/08/12 02:19:33;;;;;;;8.32;3.85;;;;;;;23.98;50.98;100542.41;5075360;28;20262;-79
2022/08/12 02:22:29;;;;;;;5.57;3.30;;;;;;;23.85;51.62;100551.56;5090042;28;20027;-79
2022/08/12 02:25:36;;;;;;;4.75;3.17;;;;;;;23.89;51.26;100541.81;5091971;28;20013;-79
2022/08/12 02:28:02;;;;;;;9.13;4.15;;;;;;;23.88;51.78;100539.28;5091357;28;20024;-78
2022/08/12 02:30:31;;;;;;;5.72;3.58;;;;;;;23.86;51.53;100531.25;5091457;28;20495;-78
2022/08/12 02:33:03;;;;;;;7.13;3.75;;;;;;;23.79;51.55;100520.25;5091360;28;20016;-78
2022/08/12 02:35:31;;;;;;;4.25;2.78;;;;;;;23.88;51.80;100536.53;5091814;28;20129;-79
2022/08/12 02:37:59;;;;;;;9.90;3.85;;;;;;;23.91;51.83;100555.34;5091464;28;20120;-78
2022/08/12 02:40:27;;;;;;;6.60;3.72;;;;;;;23.83;52.01;100560.00;5091391;28;20474;-79
2022/08/12 02:43:28;;;;;;;7.97;2.97;;;;;;;23.81;51.89;100544.78;5092813;28;20020;-79
2022/08/12 02:46:07;;;;;;;8.95;3.40;;;;;;;23.80;51.76;100535.69;5093880;28;20083;-78
2022/08/12 02:48:52;;;;;;;7.65;3.33;;;;;;;23.78;52.01;100554.31;5093368;28;20032;-79
2022/08/12 02:51:22;;;;;;;10.18;4.55;;;;;;;23.77;52.29;100558.09;5093300;28;20027;-79
2022/08/12 02:53:50;;;;;;;4.53;3.58;;;;;;;23.80;51.98;100554.06;5096041;28;20039;-78
2022/08/12 02:56:17;;;;;;;3.97;3.58;;;;;;;23.55;52.03;100528.31;5095912;28;20103;-79
2022/08/12 02:58:44;;;;;;;14.05;4.28;;;;;;;23.67;52.55;100548.56;5078151;28;20088;-79
2022/08/12 03:01:11;;;;;;;4.93;3.95;;;;;;;23.74;52.62;100553.03;5095333;28;20122;-78
2022/08/12 03:03:45;;;;;;;5.63;3.53;;;;;;;23.46;53.21;100546.03;5095252;28;20466;-79
2022/08/12 03:06:22;;;;;;;18.73;4.20;;;;;;;23.51;53.56;100549.88;5095220;28;20107;-78
2022/08/12 03:08:56;;;;;;;7.47;4.22;;;;;;;23.44;53.85;100560.00;5093819;28;20024;-78
2022/08/12 03:11:26;;;;;;;8.38;4.57;;;;;;;23.40;53.96;100569.69;5093758;28;20118;-78
2022/08/12 03:13:57;;;;;;;5.97;3.95;;;;;;;23.48;54.22;100566.75;5093578;28;20111;-79
2022/08/12 03:16:24;;;;;;;10.77;4.88;;;;;;;23.50;54.16;100559.16;5094849;28;20036;-79
2022/08/12 03:18:50;;;;;;;13.52;4.68;;;;;;;23.54;54.21;100557.69;5094868;28;20036;-78
2022/08/12 03:21:19;;;;;;;4.47;3.95;;;;;;;23.43;54.55;100558.28;5095011;28;20024;-78
2022/08/12 03:23:46;;;;;;;6.72;4.70;;;;;;;23.38;54.81;100554.47;5093306;28;20119;-79
2022/08/12 03:26:13;;;;;;;5.57;4.70;;;;;;;23.42;54.93;100556.63;5093164;28;20115;-78
2022/08/12 03:28:49;;;;;;;7.43;5.10;;;;;;;23.44;54.85;100560.00;5094634;28;20027;-79
2022/08/12 03:31:34;;;;;;;13.07;4.95;;;;;;;23.48;55.15;100561.28;5093590;28;20048;-78
2022/08/12 03:34:09;;;;;;;13.48;5.65;;;;;;;23.46;55.26;100557.88;5093711;28;20028;-78
2022/08/12 03:36:38;;;;;;;7.22;5.30;;;;;;;23.47;55.38;100559.56;5089139;28;20066;-80
2022/08/12 03:41:58;;;;;;;6.70;4.72;;;;;;;23.52;55.41;100561.66;5094664;28;20086;-78
2022/08/12 04:01:13;;;;;;;20.63;7.03;;;;;;;23.48;56.29;100561.28;5093970;28;20113;-79
2022/08/12 04:03:52;;;;;;;6.82;5.90;;;;;;;23.54;56.09;100560.44;5092574;28;20493;-78
2022/08/12 04:06:21;;;;;;;10.70;5.90;;;;;;;23.50;56.28;100564.63;5093897;28;20050;-79
2022/08/12 04:08:57;;;;;;;8.52;5.63;;;;;;;23.51;56.33;100554.50;5093968;28;20024;-78
2022/08/12 04:14:19;;;;;;;10.38;5.40;;;;;;;23.47;56.73;100562.31;5093711;28;20124;-78
2022/08/12 04:16:48;;;;;;;19.80;6.32;;;;;;;23.47;56.93;100564.22;5098606;28;20441;-82
2022/08/12 04:19:15;;;;;;;18.85;5.70;;;;;;;23.41;56.86;100582.38;5099700;28;20024;-79
2022/08/12 04:21:41;;;;;;;13.30;6.35;;;;;;;23.39;57.38;100570.78;5099040;28;20031;-78
2022/08/12 04:24:08;;;;;;;9.60;6.43;;;;;;;23.39;57.54;100568.03;5100806;28;20093;-79
2022/08/12 04:26:38;;;;;;;11.95;5.57;;;;;;;23.45;57.13;100572.69;5095073;28;20535;-79
2022/08/12 04:29:04;;;;;;;15.65;6.15;;;;;;;23.50;57.09;100588.50;5094373;28;20028;-78
2022/08/12 04:31:35;;;;;;;14.88;6.68;;;;;;;23.52;56.99;100589.97;5094434;28;20035;-78
2022/08/12 04:34:02;;;;;;;10.43;7.20;;;;;;;23.55;57.02;100588.72;5093793;28;20031;-78
2022/08/12 04:36:29;;;;;;;17.63;6.72;;;;;;;23.57;57.15;100573.75;5091814;28;20035;-78
2022/08/12 04:38:57;;;;;;;15.27;5.97;;;;;;;23.53;57.05;100575.19;5093262;28;20102;-78
2022/08/12 04:41:26;;;;;;;9.82;6.93;;;;;;;23.65;57.20;100575.41;5093310;28;20028;-78
2022/08/12 04:43:53;;;;;;;22.58;6.63;;;;;;;23.66;57.12;100582.59;5091770;28;20024;-79
2022/08/12 04:46:19;;;;;;;17.20;7.43;;;;;;;23.68;56.97;100577.75;5091452;28;20019;-78
2022/08/12 04:48:45;;;;;;;12.10;6.80;;;;;;;23.61;56.93;100574.13;5091367;28;20032;-78
2022/08/12 04:51:12;;;;;;;18.08;6.35;;;;;;;23.58;57.16;100583.66;5092854;28;20089;-78
2022/08/12 04:53:39;;;;;;;10.52;6.90;;;;;;;23.63;57.05;100585.78;5092855;28;20020;-78
2022/08/12 04:56:05;;;;;;;13.63;6.25;;;;;;;23.66;57.08;100583.47;5091600;28;20074;-79
2022/08/12 04:58:33;;;;;;;9.80;6.22;;;;;;;23.57;57.17;100564.66;5092694;28;20028;-79
2022/08/12 05:00:59;;;;;;;16.42;7.20;;;;;;;23.71;57.26;100589.16;5091707;28;20409;-78
2022/08/12 05:03:25;;;;;;;12.82;7.18;;;;;;;23.72;57.20;100590.84;5092550;28;20031;-80
2022/08/12 05:05:55;;;;;;;13.85;7.30;;;;;;;23.61;57.45;100566.75;5092748;28;20409;-80
2022/08/12 05:08:22;;;;;;;13.05;7.00;;;;;;;23.80;57.82;100585.13;5092571;28;20032;-79
2022/08/12 05:10:49;;;;;;;20.50;7.47;;;;;;;23.85;57.36;100585.34;5092668;28;20039;-79
2022/08/12 05:13:38;;;;;;;8.35;6.68;;;;;;;23.97;57.12;100585.56;5092422;28;20028;-79
2022/08/12 05:16:05;;;;;;;12.98;7.60;;;;;;;23.98;57.42;100595.47;5075219;28;20052;-78
2022/08/12 05:18:37;;;;;;;19.35;7.22;;;;;;;23.90;57.87;100581.13;5091174;28;20070;-80
2022/08/12 05:21:06;;;;;;;26.98;8.50;;;;;;;24.03;58.22;100570.13;5091278;28;20032;-79
2022/08/12 05:23:32;;;;;;;15.65;7.18;;;;;;;24.18;57.91;100573.50;5090898;28;20031;-80
2022/08/12 05:25:59;;;;;;;7.85;6.13;;;;;;;24.20;57.41;100565.88;5092106;28;20095;-78
2022/08/12 05:28:27;;;;;;;11.00;7.13;;;;;;;24.33;57.19;100579.59;5092422;28;20020;-80
2022/08/12 05:30:54;;;;;;;17.48;8.73;;;;;;;24.38;57.39;100577.03;5090840;28;20115;-79
2022/08/12 05:33:21;;;;;;;20.90;8.70;;;;;;;24.38;57.69;100577.91;5092040;28;20088;-80
2022/08/12 05:35:48;;;;;;;19.30;13.15;;;;;;;24.49;57.70;100576.41;5091018;28;20031;-79
2022/08/12 05:41:03;;;;;;;13.95;8.07;;;;;;;24.62;57.57;100559.81;5092116;28;20118;-79
2022/08/12 05:43:30;;;;;;;16.40;8.90;;;;;;;24.72;57.45;100565.72;5091821;28;20111;-79
2022/08/12 05:45:57;;;;;;;13.07;7.93;;;;;;;24.72;57.64;100556.63;5090533;28;20027;-79
2022/08/12 05:48:23;;;;;;;22.52;8.50;;;;;;;24.74;57.45;100566.34;5091681;28;20103;-79
2022/08/12 05:50:51;;;;;;;13.45;8.25;;;;;;;24.75;57.77;100564.44;5096400;28;20555;-79
2022/08/12 05:53:18;;;;;;;16.08;8.70;;;;;;;24.77;57.79;100565.88;5102397;28;20024;-79
2022/08/12 05:55:45;;;;;;;14.50;8.75;;;;;;;24.84;57.78;100561.25;5100396;28;20055;-78
2022/08/12 05:58:10;;;;;;;35.72;9.55;;;;;;;24.86;57.75;100559.09;5101954;28;20024;-79
2022/08/12 06:00:36;;;;;;;26.10;9.60;;;;;;;24.79;58.21;100561.03;5096562;28;20042;-79
2022/08/12 06:03:04;;;;;;;12.07;7.82;;;;;;;24.88;57.96;100565.25;5077949;28;20036;-79
2022/08/12 06:05:35;;;;;;;13.68;9.63;;;;;;;24.99;57.56;100569.19;5092270;28;20067;-79
2022/08/12 06:08:07;;;;;;;15.60;9.55;;;;;;;25.03;57.29;100562.22;5092057;28;20028;-79
2022/08/12 06:10:35;;;;;;;20.73;9.93;;;;;;;25.10;57.33;100554.75;5091781;28;20020;-79
2022/08/12 06:13:06;;;;;;;35.75;15.60;;;;;;;25.09;57.24;100550.31;5091407;28;20034;-78
2022/08/12 06:15:38;;;;;;;19.48;9.20;;;;;;;25.17;57.19;100563.81;5089777;28;20044;-78
2022/08/12 06:18:09;;;;;;;21.83;9.63;;;;;;;25.08;57.30;100547.78;5090122;28;20043;-79
2022/08/12 06:20:35;;;;;;;13.93;9.88;;;;;;;25.28;57.28;100565.03;5091230;28;20035;-79
2022/08/12 06:23:01;;;;;;;16.88;9.18;;;;;;;25.38;57.33;100570.91;5091155;28;20095;-79
2022/08/12 06:25:28;;;;;;;17.50;9.88;;;;;;;25.53;56.97;100567.84;5090150;28;20033;-79
2022/08/12 06:27:57;;;;;;;17.67;9.57;;;;;;;25.62;57.09;100572.84;5089533;28;20059;-79
2022/08/12 06:30:29;;;;;;;16.42;10.05;;;;;;;25.74;56.88;100568.31;5090036;28;20431;-78
2022/08/12 06:32:54;;;;;;;19.88;12.77;;;;;;;25.78;56.76;100566.75;5091075;28;20486;-79
2022/08/12 06:35:20;;;;;;;37.28;11.30;;;;;;;25.80;56.38;100564.66;5090783;28;20039;-79
2022/08/12 06:37:50;;;;;;;17.92;10.07;;;;;;;25.79;56.34;100551.94;5089782;28;20032;-78
2022/08/12 06:43:07;;;;;;;23.83;10.60;;;;;;;26.01;56.40;100551.50;5048084;28;20048;-80
2022/08/12 06:45:44;;;;;;;15.95;10.95;;;;;;;26.03;55.87;100564.00;5084530;28;20044;-78
2022/08/12 06:48:10;;;;;;;15.35;11.40;;;;;;;26.02;56.09;100551.31;5090148;28;20426;-79
2022/08/12 06:50:37;;;;;;;13.52;10.43;;;;;;;26.20;55.72;100564.28;5073002;28;20055;-78
2022/08/12 06:53:04;;;;;;;14.70;10.98;;;;;;;26.29;55.40;100561.00;5089771;28;20035;-78
2022/08/12 06:55:30;;;;;;;17.52;11.07;;;;;;;26.35;55.45;100567.53;5089776;28;20257;-78
2022/08/12 06:58:00;;;;;;;18.08;9.90;;;;;;;26.42;54.95;100565.53;5106797;28;20028;-81
2022/08/12 07:00:29;;;;;;;12.80;10.85;;;;;;;26.48;54.66;100559.91;5091154;28;20055;-78
2022/08/12 07:02:57;;;;;;;25.33;9.82;;;;;;;26.42;54.62;100562.78;5090883;28;20537;-79
2022/08/12 07:05:23;;;;;;;23.38;10.52;;;;;;;26.45;54.76;100568.66;5091012;28;20081;-80
2022/08/12 07:08:07;;;;;;;19.38;11.65;;;;;;;26.49;54.76;100558.00;5089800;28;20119;-79
2022/08/12 07:11:00;;;;;;;18.75;11.00;;;;;;;26.73;53.85;100564.50;5090729;28;20040;-79
2022/08/12 07:13:34;;;;;;;17.75;11.93;;;;;;;26.77;53.65;100566.59;5089649;28;20035;-79
2022/08/12 07:16:02;;;;;;;13.07;10.45;;;;;;;26.85;53.33;100566.28;5089069;28;20052;-79
2022/08/12 07:18:31;;;;;;;16.83;10.35;;;;;;;26.88;53.21;100567.75;5090633;28;20545;-79
2022/08/12 07:21:00;;;;;;;22.38;10.57;;;;;;;26.92;53.37;100560.69;5089995;28;20139;-79
2022/08/12 07:23:26;;;;;;;21.52;11.80;;;;;;;27.07;52.89;100574.06;5073686;28;20028;-79
2022/08/12 07:25:53;;;;;;;19.85;10.88;;;;;;;27.08;53.02;100573.84;5101858;28;20020;-79
2022/08/12 07:28:22;;;;;;;15.35;10.32;;;;;;;27.14;52.46;100574.81;5083036;28;20095;-78
2022/08/12 07:30:50;;;;;;;18.50;10.73;;;;;;;27.20;52.03;100571.13;5083681;28;20020;-78
2022/08/12 07:33:17;;;;;;;16.70;9.95;;;;;;;27.24;51.77;100561.31;5097476;28;20024;-81
2022/08/12 07:35:46;;;;;;;13.30;10.73;;;;;;;27.21;52.27;100564.53;5090576;28;20024;-79
2022/08/12 07:38:29;;;;;;;28.52;11.55;;;;;;;27.40;51.49;100566.16;5090146;28;20024;-79
2022/08/12 07:40:56;;;;;;;;;;;;;;;27.46;51.06;100571.59;5093849;28;20024;-79
2022/08/12 07:43:22;;;;;;;18.35;10.38;;;;;;;27.38;51.01;100560.00;5093226;28;20071;-79
2022/08/12 07:45:51;;;;;;;20.23;10.80;;;;;;;27.47;50.92;100566.91;5094005;28;20024;-79
2022/08/12 07:48:16;;;;;;;13.75;10.98;;;;;;;27.48;50.88;100563.09;5075662;28;20134;-79
2022/08/12 07:50:42;;;;;;;17.65;12.93;;;;;;;27.59;50.73;100562.25;5093956;28;20060;-79
2022/08/12 07:53:07;;;;;;;14.60;11.20;;;;;;;27.65;50.41;100563.22;5093917;28;20039;-80
2022/08/12 07:55:35;;;;;;;20.75;13.18;;;;;;;27.69;50.49;100547.84;5075623;28;20048;-78
2022/08/12 07:58:02;;;;;;;17.92;11.73;;;;;;;27.86;49.96;100565.41;5093831;28;20020;-79
2022/08/12 08:00:30;;;;;;;15.50;11.15;;;;;;;27.92;49.48;100561.72;5094109;28;20088;-79
2022/08/12 08:02:57;;;;;;;21.92;11.60;;;;;;;28.01;49.71;100563.84;5093716;28;20020;-79
2022/08/12 08:05:27;;;;;;;20.73;11.35;;;;;;;28.07;49.52;100557.41;5092300;28;20020;-79
2022/08/12 08:08:00;;;;;;;17.58;11.63;;;;;;;28.19;49.56;100553.81;5092037;28;20031;-79
2022/08/12 08:10:27;;;;;;;17.15;11.05;;;;;;;28.28;48.98;100557.88;5093733;28;20027;-80
2022/08/12 08:12:56;;;;;;;28.42;12.57;;;;;;;28.44;48.21;100562.69;5092396;28;20038;-79
2022/08/12 08:15:26;;;;;;;14.55;10.75;;;;;;;28.50;48.14;100562.50;5093250;28;20115;-79
2022/08/12 08:18:01;;;;;;;16.02;11.07;;;;;;;28.62;48.10;100559.75;5093629;28;20024;-78
2022/08/12 08:20:28;;;;;;;14.20;10.15;;;;;;;28.58;47.93;100547.47;5093475;28;20031;-79
2022/08/12 08:22:58;;;;;;;21.45;10.63;;;;;;;28.70;47.91;100553.84;5091486;28;20031;-79
2022/08/12 08:25:32;;;;;;;22.35;11.70;;;;;;;28.72;47.72;100554.44;5091963;28;20038;-79
2022/08/12 08:28:12;;;;;;;17.13;10.73;;;;;;;28.84;46.91;100558.00;5093430;28;20072;-79
2022/08/12 08:30:41;;;;;;;15.07;11.68;;;;;;;29.02;46.59;100554.22;5093364;28;20024;-79
2022/08/12 08:33:10;;;;;;;16.23;11.50;;;;;;;29.00;46.64;100550.84;5075434;28;20111;-78
2022/08/12 08:35:38;;;;;;;21.13;13.73;;;;;;;29.04;46.70;100552.03;5091848;28;20355;-79
2022/08/12 08:38:12;;;;;;;20.80;11.38;;;;;;;29.05;46.87;100542.66;5091613;28;20056;-79
2022/08/12 08:43:30;;;;;;;22.98;10.98;;;;;;;29.29;46.23;100552.56;5092889;28;20062;-78
2022/08/12 08:45:59;;;;;;;18.58;11.57;;;;;;;29.45;45.77;100548.09;5092804;28;20054;-79
2022/08/12 08:48:25;;;;;;;16.00;10.23;;;;;;;29.55;45.22;100542.75;5091084;28;20075;-79
2022/08/12 08:50:51;;;;;;;21.45;11.27;;;;;;;29.58;45.48;100540.31;5124862;27;20497;-78
2022/08/12 08:53:17;;;;;;;18.05;11.20;;;;;;;29.67;45.31;100543.50;5092031;28;20039;-79
2022/08/12 08:55:44;;;;;;;16.15;10.52;;;;;;;29.83;44.57;100539.94;5093089;28;20040;-76
2022/08/12 08:58:12;;;;;;;12.30;9.73;;;;;;;29.96;44.42;100539.59;5095569;28;20027;-78
2022/08/12 09:00:41;;;;;;;18.88;11.85;;;;;;;29.96;44.06;100530.44;5085513;28;20070;-79
2022/08/12 09:03:08;;;;;;;21.27;12.15;;;;;;;30.13;43.58;100540.41;5102830;28;20040;-79
2022/08/12 09:05:35;;;;;;;23.75;10.98;;;;;;;30.20;43.86;100543.00;5118712;28;20032;-79
2022/08/12 09:08:02;;;;;;;13.30;11.23;;;;;;;30.07;43.85;100535.88;5096059;28;20027;-79
2022/08/12 09:10:32;;;;;;;23.90;11.13;;;;;;;30.11;43.58;100525.97;5095599;28;20119;-79
2022/08/12 09:15:43;;;;;;;22.75;11.55;;;;;;;30.00;47.74;100528.84;5092842;28;20182;-79
2022/08/12 09:18:10;;;;;;;22.63;11.48;;;;;;;29.81;48.86;100524.63;5092297;28;20103;-79
2022/08/12 09:20:37;;;;;;;25.40;12.50;;;;;;;29.74;48.84;100523.94;5092289;28;20070;-78
2022/08/12 09:23:10;;;;;;;20.38;12.00;;;;;;;29.62;49.27;100532.34;5090708;28;20089;-79
2022/08/12 09:25:38;;;;;;;26.95;12.98;;;;;;;29.68;48.58;100521.09;5092114;28;20031;-78
2022/08/12 09:28:06;;;;;;;24.60;11.88;;;;;;;29.84;44.77;100516.66;5091878;28;20545;-78
2022/08/12 09:30:32;;;;;;;32.47;13.82;;;;;;;30.01;44.10;100519.41;5090494;28;20491;-78
2022/08/12 09:32:57;;;;;;;18.25;11.93;;;;;;;30.13;43.64;100514.59;5092088;28;20024;-78
2022/08/12 09:35:32;;;;;;;32.58;12.68;;;;;;;30.13;44.05;100493.22;5091954;28;20027;-79
2022/08/12 09:38:00;;;;;;;14.50;11.80;;;;;;;30.23;43.41;100509.19;5090392;28;20026;-80
2022/08/12 09:40:28;;;;;;;22.90;12.90;;;;;;;30.32;43.68;100504.88;5090528;28;20401;-79
2022/08/12 09:45:45;;;;;;;19.92;12.48;;;;;;;30.46;42.36;100474.81;5090526;28;20097;-79
2022/08/12 09:48:16;;;;;;;24.77;13.55;;;;;;;30.62;41.67;100477.53;5091446;28;20466;-79
2022/08/12 09:50:44;;;;;;;20.17;11.80;;;;;;;30.93;41.66;100486.19;5090785;28;20623;-79
2022/08/12 09:53:19;;;;;;;21.55;11.90;;;;;;;31.15;41.12;100481.44;5091972;28;20027;-79
2022/08/12 09:55:51;;;;;;;20.95;12.77;;;;;;;31.07;44.93;100499.44;5091499;28;20152;-79
2022/08/12 09:58:24;;;;;;;19.55;12.63;;;;;;;31.04;45.85;100486.06;5090058;28;20020;-79
2022/08/12 10:00:53;;;;;;;30.40;11.55;;;;;;;31.03;45.73;100484.41;5090126;28;20482;-79
2022/08/12 10:03:20;;;;;;;25.40;12.48;;;;;;;30.90;46.24;100478.38;5089568;28;20028;-78
2022/08/12 10:05:47;;;;;;;15.02;11.50;;;;;;;30.64;46.67;100469.75;5090066;28;20020;-78
2022/08/12 10:08:15;;;;;;;16.50;12.60;;;;;;;30.67;46.55;100483.13;5090784;28;20043;-78
2022/08/12 10:13:43;;;;;;;21.70;13.63;;;;;;;30.62;47.40;100473.91;5090501;28;20448;-79
2022/08/12 10:16:21;;;;;;;17.60;11.88;;;;;;;30.69;47.10;100460.66;5091012;28;20052;-79
2022/08/12 10:18:58;;;;;;;27.08;12.73;;;;;;;30.77;46.74;100471.28;5091064;28;20042;-79
2022/08/12 10:21:35;;;;;;;21.00;12.93;;;;;;;30.78;46.88;100464.66;5091382;28;20085;-79
2022/08/12 10:24:22;;;;;;;20.42;12.50;;;;;;;30.70;47.50;100467.91;5091299;28;20093;-78
2022/08/12 10:29:41;;;;;;;20.73;12.95;;;;;;;30.58;47.66;100464.44;5091626;28;20177;-78
2022/08/12 10:32:11;;;;;;;22.40;12.73;;;;;;;30.56;47.93;100466.63;5093847;28;20087;-77
2022/08/12 10:34:38;;;;;;;20.25;11.63;;;;;;;30.67;47.35;100471.19;5080265;28;20143;-78
2022/08/12 10:37:05;;;;;;;24.42;11.77;;;;;;;30.76;47.23;100464.09;5097554;28;20024;-78
2022/08/12 10:39:34;;;;;;;20.73;12.05;;;;;;;30.98;46.71;100470.44;5096039;28;20040;-78
2022/08/12 10:44:47;;;;;;;16.92;11.38;;;;;;;31.17;46.25;100446.72;5090752;28;20517;-79
2022/08/12 10:47:15;;;;;;;23.20;12.82;;;;;;;31.35;46.00;100458.53;5090327;28;20093;-78
2022/08/12 10:49:48;;;;;;;18.13;11.82;;;;;;;31.53;45.55;100458.19;5091202;28;20052;-78
2022/08/12 10:52:16;;;;;;;22.00;11.48;;;;;;;31.73;45.52;100455.53;5089682;28;20067;-78
2022/08/12 10:54:45;;;;;;;16.80;11.93;;;;;;;31.85;45.06;100452.56;5089896;28;20541;-79
2022/08/12 10:57:11;;;;;;;22.90;12.02;;;;;;;31.67;45.31;100440.78;5091158;28;20070;-78
2022/08/12 10:59:39;;;;;;;17.27;11.35;;;;;;;31.70;45.26;100450.53;5090754;28;20126;-79
2022/08/12 11:02:06;;;;;;;25.42;12.18;;;;;;;31.68;45.16;100448.00;5090415;28;20028;-78
2022/08/12 11:04:34;;;;;;;13.18;10.35;;;;;;;31.66;46.62;100450.22;5090583;28;20020;-79
2022/08/12 11:07:02;;;;;;;33.30;11.35;;;;;;;31.87;45.71;100448.38;5089750;28;20040;-78
2022/08/12 11:09:36;;;;;;;20.95;11.18;;;;;;;31.78;44.79;100436.09;5091194;28;20052;-78
2022/08/12 11:12:06;;;;;;;24.00;11.48;;;;;;;31.81;45.04;100435.56;5090532;28;20474;-78
2022/08/12 11:14:33;;;;;;;15.90;10.90;;;;;;;32.03;44.57;100444.63;5093861;28;20068;-78
2022/08/12 11:17:07;;;;;;;19.88;11.88;;;;;;;32.08;45.08;100441.88;5094575;28;20107;-79
2022/08/12 11:19:35;;;;;;;20.45;12.40;;;;;;;31.93;45.36;100427.84;5094524;28;20020;-80
2022/08/12 11:22:02;;;;;;;20.40;11.80;;;;;;;31.94;45.35;100421.19;5094630;28;20458;-78
2022/08/12 11:24:28;;;;;;;30.48;12.73;;;;;;;31.87;44.91;100417.78;5094181;28;20092;-79
2022/08/12 11:26:54;;;;;;;22.13;12.30;;;;;;;31.89;45.45;100432.28;5093162;28;20024;-80
2022/08/12 11:29:22;;;;;;;37.80;13.35;;;;;;;31.80;45.42;100433.91;5093447;28;20056;-78
2022/08/12 11:31:48;;;;;;;13.07;10.93;;;;;;;31.63;46.55;100439.63;5094762;28;20055;-78
2022/08/12 11:34:15;;;;;;;24.92;11.98;;;;;;;31.31;47.82;100440.75;5093048;28;20024;-78
2022/08/12 11:36:55;;;;;;;17.63;11.98;;;;;;;31.23;47.71;100439.28;5094428;28;20427;-79
2022/08/12 11:39:23;;;;;;;22.67;11.88;;;;;;;31.29;47.92;100433.50;5092635;28;20023;-78
2022/08/12 11:41:49;;;;;;;23.60;11.15;;;;;;;31.13;47.87;100440.03;5094239;28;20032;-79
2022/08/12 11:44:15;;;;;;;13.48;10.70;;;;;;;31.16;47.51;100439.50;5075984;28;20054;-79
2022/08/12 11:46:41;;;;;;;29.13;11.77;;;;;;;31.08;48.59;100436.34;5092565;28;20399;-79
2022/08/12 11:49:08;;;;;;;30.13;13.20;;;;;;;31.05;48.24;100448.84;5092794;28;20019;-78
2022/08/12 11:51:35;;;;;;;17.92;12.50;;;;;;;30.84;48.89;100463.59;5092629;28;20489;-79
2022/08/12 11:54:00;;;;;;;37.30;13.07;;;;;;;30.51;49.80;100458.22;5093932;28;20051;-78
2022/08/12 11:56:28;;;;;;;12.95;9.98;;;;;;;30.17;50.66;100452.78;5093574;28;20063;-78
2022/08/12 11:58:54;;;;;;;24.40;12.00;;;;;;;29.99;51.68;100461.41;5093998;28;20473;-78
2022/08/12 12:01:20;;;;;;;17.00;11.68;;;;;;;29.90;51.86;100462.13;5093207;28;20127;-78
2022/08/12 12:03:45;;;;;;;18.88;12.38;;;;;;;29.95;51.47;100460.25;5092029;28;20063;-78
2022/08/12 12:06:11;;;;;;;20.02;11.48;;;;;;;29.88;52.65;100459.56;5097224;28;20020;-77
2022/08/12 12:08:36;;;;;;;36.10;13.35;;;;;;;29.99;53.86;100460.56;5101317;28;20024;-77
2022/08/12 12:11:03;;;;;;;23.65;12.80;;;;;;;29.91;54.68;100461.00;5101097;28;20541;-78
2022/08/12 12:13:29;;;;;;;29.70;14.55;;;;;;;29.96;54.72;100459.16;5099020;28;20040;-77
2022/08/12 12:15:57;;;;;;;24.02;12.70;;;;;;;29.91;54.50;100470.16;5093916;28;20101;-77
2022/08/12 12:18:23;;;;;;;26.70;12.57;;;;;;;29.61;55.31;100464.13;5076908;28;20020;-79
2022/08/12 12:20:50;;;;;;;20.15;13.13;;;;;;;29.59;55.07;100460.78;5094343;28;20031;-78
2022/08/12 12:23:15;;;;;;;28.65;12.30;;;;;;;29.57;55.39;100462.97;5092647;28;20491;-78
2022/08/12 12:25:41;;;;;;;25.60;13.05;;;;;;;29.56;55.30;100456.59;5091240;28;20146;-77
2022/08/12 12:28:07;;;;;;;23.83;12.88;;;;;;;29.58;55.30;100459.09;5092117;28;20494;-79
2022/08/12 12:30:35;;;;;;;46.25;14.07;;;;;;;29.59;54.98;100456.06;5093384;28;20031;-78
2022/08/12 12:33:01;;;;;;;40.08;15.25;;;;;;;29.59;54.65;100460.78;5092138;28;20434;-78
2022/08/12 12:35:26;;;;;;;26.98;14.45;;;;;;;29.64;54.46;100458.06;5093290;28;20157;-79
2022/08/12 12:38:04;;;;;;;18.50;14.10;;;;;;;29.70;53.87;100448.75;5093264;28;20486;-79
2022/08/12 12:40:31;;;;;;;21.88;12.77;;;;;;;29.68;54.20;100459.25;5093300;28;20028;-78
2022/08/12 12:42:57;;;;;;;25.45;13.30;;;;;;;29.78;54.04;100453.88;5091531;28;20398;-79
2022/08/12 12:45:23;;;;;;;20.95;13.63;;;;;;;29.63;54.36;100445.34;5091815;28;20028;-78
2022/08/12 12:47:55;;;;;;;13.93;12.20;;;;;;;29.80;53.82;100446.13;5093041;28;20020;-79
2022/08/12 12:50:21;;;;;;;23.75;14.02;;;;;;;29.81;53.78;100458.91;5093199;28;20508;-79
2022/08/12 12:52:47;;;;;;;22.92;12.93;;;;;;;29.80;54.31;100451.69;5091294;28;20024;-78
2022/08/12 12:55:15;;;;;;;26.35;14.18;;;;;;;29.84;54.20;100446.50;5092653;28;20024;-79
2022/08/12 12:57:44;;;;;;;24.30;13.43;;;;;;;29.74;54.20;100436.06;5091132;28;20028;-78
2022/08/12 13:00:14;;;;;;;40.92;13.73;;;;;;;29.92;53.97;100443.28;5091708;28;20081;-78
2022/08/12 13:02:51;;;;;;;16.65;14.18;;;;;;;29.79;54.87;100449.13;5091423;28;20122;-78
2022/08/12 13:05:18;;;;;;;24.77;12.50;;;;;;;29.81;55.23;100442.28;5091219;28;20126;-79
2022/08/12 13:07:44;;;;;;;20.90;13.00;;;;;;;30.00;55.19;100449.22;5092369;28;20031;-79
2022/08/12 13:10:10;;;;;;;19.00;14.73;;;;;;;29.97;54.85;100448.88;5091263;28;20103;-78
2022/08/12 13:12:36;;;;;;;21.60;13.13;;;;;;;29.83;55.42;100436.47;5091231;28;20469;-78
2022/08/12 13:15:07;;;;;;;21.85;12.57;;;;;;;29.99;55.41;100441.16;5092319;28;20059;-78